sensor_id;sensor_type;location;lat;lon;timestamp;pressure;altitude;pressure_sealevel;temperature;humidity
35023;BME280;21214;44.912;8.204;2023-02-04T00:01:03;100296.06;;;4.27;100.00
35023;BME280;21214;44.912;8.204;2023-02-04T00:03:28;100301.28;;;4.27;100.00
35023;BME280;21214;44.912;8.204;2023-02-04T00:05:54;100302.81;;;4.31;100.00
35023;BME280;21214;44.912;8.204;2023-02-04T00:08:19;100292.00;;;4.37;100.00
35023;BME280;21214;44.912;8.204;2023-02-04T00:10:45;100292.94;;;4.36;100.00
35023;BME280;21214;44.912;8.204;2023-02-04T00:13:11;100283.91;;;4.42;100.00
35023;BME280;21214;44.912;8.204;2023-02-04T00:15:37;100267.22;;;4.44;100.00
35023;BME280;21214;44.912;8.204;2023-02-04T00:18:03;100268.72;;;4.48;100.00
35023;BME280;21214;44.912;8.204;2023-02-04T00:20:31;100277.19;;;4.53;100.00
35023;BME280;21214;44.912;8.204;2023-02-04T00:22:57;100275.50;;;4.52;100.00
35023;BME280;21214;44.912;8.204;2023-02-04T00:25:24;100264.38;;;4.33;100.00
35023;BME280;21214;44.912;8.204;2023-02-04T00:27:50;100246.50;;;4.41;100.00
35023;BME280;21214;44.912;8.204;2023-02-04T00:30:16;100246.31;;;4.44;100.00
35023;BME280;21214;44.912;8.204;2023-02-04T00:32:41;100240.59;;;4.38;100.00
35023;BME280;21214;44.912;8.204;2023-02-04T00:35:07;100244.97;;;4.37;100.00
35023;BME280;21214;44.912;8.204;2023-02-04T00:37:33;100258.22;;;4.34;100.00
35023;BME280;21214;44.912;8.204;2023-02-04T00:39:58;100258.97;;;4.36;100.00
35023;BME280;21214;44.912;8.204;2023-02-04T00:42:24;100250.03;;;4.40;100.00
35023;BME280;21214;44.912;8.204;2023-02-04T00:44:49;100256.28;;;4.38;100.00
35023;BME280;21214;44.912;8.204;2023-02-04T00:47:15;100259.31;;;4.30;100.00
35023;BME280;21214;44.912;8.204;2023-02-04T00:49:41;100255.97;;;4.28;100.00
35023;BME280;21214;44.912;8.204;2023-02-04T00:52:06;100263.53;;;4.33;100.00
35023;BME280;21214;44.912;8.204;2023-02-04T00:54:32;100258.16;;;4.36;100.00
35023;BME280;21214;44.912;8.204;2023-02-04T00:56:57;100261.69;;;4.35;100.00
35023;BME280;21214;44.912;8.204;2023-02-04T00:59:22;100260.66;;;4.37;100.00
35023;BME280;21214;44.912;8.204;2023-02-04T01:01:48;100259.22;;;4.32;100.00
35023;BME280;21214;44.912;8.204;2023-02-04T01:04:15;100255.44;;;4.37;100.00
35023;BME280;21214;44.912;8.204;2023-02-04T01:06:42;100252.47;;;4.43;100.00
35023;BME280;21214;44.912;8.204;2023-02-04T01:09:08;100241.44;;;4.38;100.00
35023;BME280;21214;44.912;8.204;2023-02-04T01:11:34;100241.09;;;4.44;100.00
35023;BME280;21214;44.912;8.204;2023-02-04T01:14:01;100240.75;;;4.50;100.00
35023;BME280;21214;44.912;8.204;2023-02-04T01:16:26;100231.06;;;4.52;100.00
35023;BME280;21214;44.912;8.204;2023-02-04T01:18:52;100234.50;;;4.53;100.00
35023;BME280;21214;44.912;8.204;2023-02-04T01:21:22;100230.69;;;4.59;100.00
35023;BME280;21214;44.912;8.204;2023-02-04T01:23:48;100223.78;;;4.58;100.00
35023;BME280;21214;44.912;8.204;2023-02-04T01:26:17;100210.72;;;4.58;100.00
35023;BME280;21214;44.912;8.204;2023-02-04T01:28:43;100209.03;;;4.57;100.00
35023;BME280;21214;44.912;8.204;2023-02-04T01:31:08;100214.44;;;4.53;100.00
35023;BME280;21214;44.912;8.204;2023-02-04T01:33:34;100205.34;;;4.45;100.00
35023;BME280;21214;44.912;8.204;2023-02-04T01:35:59;100191.44;;;4.44;100.00
35023;BME280;21214;44.912;8.204;2023-02-04T01:38:25;100202.88;;;4.28;100.00
35023;BME280;21214;44.912;8.204;2023-02-04T01:40:50;100195.28;;;4.23;100.00
35023;BME280;21214;44.912;8.204;2023-02-04T01:43:16;100187.56;;;4.06;100.00
35023;BME280;21214;44.912;8.204;2023-02-04T01:45:46;100187.06;;;3.84;100.00
35023;BME280;21214;44.912;8.204;2023-02-04T01:48:12;100181.19;;;3.64;100.00
35023;BME280;21214;44.912;8.204;2023-02-04T01:50:56;100176.63;;;3.52;100.00
35023;BME280;21214;44.912;8.204;2023-02-04T01:53:24;100184.03;;;3.28;100.00
35023;BME280;21214;44.912;8.204;2023-02-04T01:55:50;100175.81;;;3.19;100.00
35023;BME280;21214;44.912;8.204;2023-02-04T01:58:16;100166.28;;;3.02;100.00
35023;BME280;21214;44.912;8.204;2023-02-04T02:00:42;100168.53;;;2.93;100.00
35023;BME280;21214;44.912;8.204;2023-02-04T02:03:08;100164.25;;;2.92;100.00
35023;BME280;21214;44.912;8.204;2023-02-04T02:08:01;100149.38;;;2.94;100.00
35023;BME280;21214;44.912;8.204;2023-02-04T02:10:27;100141.50;;;3.11;100.00
35023;BME280;21214;44.912;8.204;2023-02-04T02:12:53;100161.13;;;3.18;100.00
35023;BME280;21214;44.912;8.204;2023-02-04T02:15:19;100143.28;;;3.26;100.00
35023;BME280;21214;44.912;8.204;2023-02-04T02:17:45;100138.31;;;3.37;100.00
35023;BME280;21214;44.912;8.204;2023-02-04T02:20:12;100141.44;;;3.44;100.00
35023;BME280;21214;44.912;8.204;2023-02-04T02:25:23;100144.81;;;3.61;100.00
35023;BME280;21214;44.912;8.204;2023-02-04T02:27:49;100136.91;;;3.47;100.00
35023;BME280;21214;44.912;8.204;2023-02-04T02:30:14;100138.25;;;3.39;100.00
35023;BME280;21214;44.912;8.204;2023-02-04T02:32:42;100147.84;;;3.38;100.00
35023;BME280;21214;44.912;8.204;2023-02-04T02:35:08;100122.94;;;3.33;100.00
35023;BME280;21214;44.912;8.204;2023-02-04T02:37:33;100121.94;;;3.35;100.00
35023;BME280;21214;44.912;8.204;2023-02-04T02:39:59;100138.56;;;3.17;100.00
35023;BME280;21214;44.912;8.204;2023-02-04T02:42:24;100132.31;;;3.04;100.00
35023;BME280;21214;44.912;8.204;2023-02-04T02:44:50;100104.28;;;2.92;100.00
35023;BME280;21214;44.912;8.204;2023-02-04T02:47:16;100109.75;;;2.87;100.00
35023;BME280;21214;44.912;8.204;2023-02-04T02:49:44;100133.81;;;2.92;100.00
35023;BME280;21214;44.912;8.204;2023-02-04T02:52:12;100130.97;;;3.12;100.00
35023;BME280;21214;44.912;8.204;2023-02-04T02:54:38;100112.50;;;3.17;100.00
35023;BME280;21214;44.912;8.204;2023-02-04T02:57:14;100108.34;;;3.13;100.00
35023;BME280;21214;44.912;8.204;2023-02-04T02:59:40;100106.75;;;3.26;100.00
35023;BME280;21214;44.912;8.204;2023-02-04T03:02:06;100102.06;;;3.33;100.00
35023;BME280;21214;44.912;8.204;2023-02-04T03:04:34;100090.78;;;3.32;100.00
35023;BME280;21214;44.912;8.204;2023-02-04T03:07:02;100115.03;;;3.34;100.00
35023;BME280;21214;44.912;8.204;2023-02-04T03:09:28;100112.34;;;3.36;100.00
35023;BME280;21214;44.912;8.204;2023-02-04T03:11:54;100103.06;;;3.30;100.00
35023;BME280;21214;44.912;8.204;2023-02-04T03:14:20;100119.09;;;3.07;100.00
35023;BME280;21214;44.912;8.204;2023-02-04T03:16:48;100099.94;;;3.08;100.00
35023;BME280;21214;44.912;8.204;2023-02-04T03:19:14;100098.84;;;3.12;100.00
35023;BME280;21214;44.912;8.204;2023-02-04T03:21:40;100106.91;;;3.07;100.00
35023;BME280;21214;44.912;8.204;2023-02-04T03:24:06;100106.06;;;3.07;100.00
35023;BME280;21214;44.912;8.204;2023-02-04T03:26:32;100101.03;;;3.04;100.00
35023;BME280;21214;44.912;8.204;2023-02-04T03:28:57;100101.69;;;3.07;100.00
35023;BME280;21214;44.912;8.204;2023-02-04T03:31:24;100101.34;;;2.98;100.00
35023;BME280;21214;44.912;8.204;2023-02-04T03:33:49;100093.13;;;3.05;100.00
35023;BME280;21214;44.912;8.204;2023-02-04T03:36:15;100099.91;;;2.92;100.00
35023;BME280;21214;44.912;8.204;2023-02-04T03:38:40;100096.13;;;2.98;100.00
35023;BME280;21214;44.912;8.204;2023-02-04T03:41:06;100105.31;;;3.05;100.00
35023;BME280;21214;44.912;8.204;2023-02-04T03:43:31;100093.78;;;3.09;100.00
35023;BME280;21214;44.912;8.204;2023-02-04T03:45:57;100099.00;;;3.09;100.00
35023;BME280;21214;44.912;8.204;2023-02-04T03:48:22;100099.53;;;3.15;100.00
35023;BME280;21214;44.912;8.204;2023-02-04T03:50:48;100102.22;;;3.14;100.00
35023;BME280;21214;44.912;8.204;2023-02-04T03:53:13;100106.19;;;3.21;100.00
35023;BME280;21214;44.912;8.204;2023-02-04T03:55:39;100124.94;;;3.12;100.00
35023;BME280;21214;44.912;8.204;2023-02-04T03:58:04;100121.56;;;3.10;100.00
35023;BME280;21214;44.912;8.204;2023-02-04T04:00:30;100117.34;;;3.07;100.00
35023;BME280;21214;44.912;8.204;2023-02-04T04:02:57;100121.28;;;2.99;100.00
35023;BME280;21214;44.912;8.204;2023-02-04T04:05:22;100111.78;;;2.98;100.00
35023;BME280;21214;44.912;8.204;2023-02-04T04:07:48;100104.22;;;2.93;100.00
35023;BME280;21214;44.912;8.204;2023-02-04T04:10:14;100107.75;;;2.92;100.00
35023;BME280;21214;44.912;8.204;2023-02-04T04:12:39;100118.44;;;3.03;100.00
35023;BME280;21214;44.912;8.204;2023-02-04T04:15:05;100114.66;;;3.09;100.00
35023;BME280;21214;44.912;8.204;2023-02-04T04:17:30;100102.53;;;3.08;100.00
35023;BME280;21214;44.912;8.204;2023-02-04T04:19:56;100117.25;;;3.09;100.00
35023;BME280;21214;44.912;8.204;2023-02-04T04:22:22;100124.97;;;2.95;100.00
35023;BME280;21214;44.912;8.204;2023-02-04T04:24:48;100119.47;;;2.83;100.00
35023;BME280;21214;44.912;8.204;2023-02-04T04:27:13;100113.06;;;2.73;100.00
35023;BME280;21214;44.912;8.204;2023-02-04T04:29:38;100119.97;;;2.74;100.00
35023;BME280;21214;44.912;8.204;2023-02-04T04:32:04;100126.16;;;2.72;100.00
35023;BME280;21214;44.912;8.204;2023-02-04T04:34:30;100123.81;;;2.67;100.00
35023;BME280;21214;44.912;8.204;2023-02-04T04:36:56;100115.06;;;2.68;100.00
35023;BME280;21214;44.912;8.204;2023-02-04T04:39:21;100116.91;;;2.66;100.00
35023;BME280;21214;44.912;8.204;2023-02-04T04:41:47;100120.78;;;2.59;100.00
35023;BME280;21214;44.912;8.204;2023-02-04T04:44:12;100113.69;;;2.61;100.00
35023;BME280;21214;44.912;8.204;2023-02-04T04:46:38;100117.94;;;2.64;100.00
35023;BME280;21214;44.912;8.204;2023-02-04T04:49:05;100115.38;;;2.62;100.00
35023;BME280;21214;44.912;8.204;2023-02-04T04:51:31;100103.22;;;2.63;100.00
35023;BME280;21214;44.912;8.204;2023-02-04T04:53:57;100109.06;;;2.33;100.00
35023;BME280;21214;44.912;8.204;2023-02-04T04:56:23;100103.00;;;2.33;100.00
35023;BME280;21214;44.912;8.204;2023-02-04T04:58:48;100101.31;;;2.32;100.00
35023;BME280;21214;44.912;8.204;2023-02-04T05:01:14;100114.72;;;2.24;100.00
35023;BME280;21214;44.912;8.204;2023-02-04T05:03:39;100087.03;;;2.23;100.00
35023;BME280;21214;44.912;8.204;2023-02-04T05:06:05;100102.84;;;2.19;100.00
35023;BME280;21214;44.912;8.204;2023-02-04T05:08:30;100112.03;;;2.09;100.00
35023;BME280;21214;44.912;8.204;2023-02-04T05:10:56;100103.25;;;2.11;100.00
35023;BME280;21214;44.912;8.204;2023-02-04T05:13:21;100120.94;;;2.22;100.00
35023;BME280;21214;44.912;8.204;2023-02-04T05:15:49;100127.97;;;2.20;100.00
35023;BME280;21214;44.912;8.204;2023-02-04T05:18:15;100085.09;;;2.10;100.00
35023;BME280;21214;44.912;8.204;2023-02-04T05:20:40;100085.63;;;2.16;100.00
35023;BME280;21214;44.912;8.204;2023-02-04T05:23:06;100104.84;;;2.31;100.00
35023;BME280;21214;44.912;8.204;2023-02-04T05:25:31;100091.63;;;2.35;100.00
35023;BME280;21214;44.912;8.204;2023-02-04T05:27:57;100088.75;;;2.40;100.00
35023;BME280;21214;44.912;8.204;2023-02-04T05:30:22;100098.88;;;2.46;100.00
35023;BME280;21214;44.912;8.204;2023-02-04T05:32:48;100093.66;;;2.46;100.00
35023;BME280;21214;44.912;8.204;2023-02-04T05:35:14;100098.28;;;2.41;100.00
35023;BME280;21214;44.912;8.204;2023-02-04T05:37:39;100125.06;;;2.26;100.00
35023;BME280;21214;44.912;8.204;2023-02-04T05:40:05;100117.56;;;2.20;100.00
35023;BME280;21214;44.912;8.204;2023-02-04T05:42:31;100113.91;;;2.24;100.00
35023;BME280;21214;44.912;8.204;2023-02-04T05:44:56;100102.41;;;2.11;100.00
35023;BME280;21214;44.912;8.204;2023-02-04T05:47:22;100107.63;;;2.11;100.00
35023;BME280;21214;44.912;8.204;2023-02-04T05:49:47;100083.94;;;1.98;100.00
35023;BME280;21214;44.912;8.204;2023-02-04T05:52:13;100118.47;;;2.01;100.00
35023;BME280;21214;44.912;8.204;2023-02-04T05:54:39;100147.88;;;2.03;100.00
35023;BME280;21214;44.912;8.204;2023-02-04T05:57:04;100096.97;;;1.98;100.00
35023;BME280;21214;44.912;8.204;2023-02-04T05:59:30;100097.94;;;1.95;100.00
35023;BME280;21214;44.912;8.204;2023-02-04T06:01:55;100149.22;;;1.76;100.00
35023;BME280;21214;44.912;8.204;2023-02-04T06:04:21;100114.00;;;1.69;100.00
35023;BME280;21214;44.912;8.204;2023-02-04T06:06:46;100089.19;;;1.62;100.00
35023;BME280;21214;44.912;8.204;2023-02-04T06:09:11;100116.59;;;1.69;100.00
35023;BME280;21214;44.912;8.204;2023-02-04T06:11:37;100100.22;;;1.67;100.00
35023;BME280;21214;44.912;8.204;2023-02-04T06:14:02;100081.31;;;1.63;100.00
35023;BME280;21214;44.912;8.204;2023-02-04T06:16:29;100095.91;;;1.66;100.00
35023;BME280;21214;44.912;8.204;2023-02-04T06:18:54;100115.19;;;1.62;100.00
35023;BME280;21214;44.912;8.204;2023-02-04T06:21:20;100076.53;;;1.54;100.00
35023;BME280;21214;44.912;8.204;2023-02-04T06:23:46;100081.19;;;1.48;100.00
35023;BME280;21214;44.912;8.204;2023-02-04T06:26:11;100137.44;;;1.50;100.00
35023;BME280;21214;44.912;8.204;2023-02-04T06:28:37;100123.22;;;1.57;100.00
35023;BME280;21214;44.912;8.204;2023-02-04T06:31:02;100120.84;;;1.53;100.00
35023;BME280;21214;44.912;8.204;2023-02-04T06:33:28;100137.38;;;1.52;100.00
35023;BME280;21214;44.912;8.204;2023-02-04T06:35:54;100150.38;;;1.52;100.00
35023;BME280;21214;44.912;8.204;2023-02-04T06:38:20;100145.28;;;1.49;100.00
35023;BME280;21214;44.912;8.204;2023-02-04T06:40:46;100134.75;;;1.52;100.00
35023;BME280;21214;44.912;8.204;2023-02-04T06:43:16;100150.78;;;1.43;100.00
35023;BME280;21214;44.912;8.204;2023-02-04T06:45:41;100159.66;;;1.39;100.00
35023;BME280;21214;44.912;8.204;2023-02-04T06:48:07;100142.34;;;1.38;100.00
35023;BME280;21214;44.912;8.204;2023-02-04T06:50:32;100157.25;;;1.53;100.00
35023;BME280;21214;44.912;8.204;2023-02-04T06:52:57;100154.16;;;1.63;100.00
35023;BME280;21214;44.912;8.204;2023-02-04T06:55:23;100163.44;;;1.69;100.00
35023;BME280;21214;44.912;8.204;2023-02-04T06:57:50;100152.84;;;1.72;100.00
35023;BME280;21214;44.912;8.204;2023-02-04T07:00:15;100162.50;;;1.70;100.00
35023;BME280;21214;44.912;8.204;2023-02-04T07:02:42;100172.53;;;1.78;100.00
35023;BME280;21214;44.912;8.204;2023-02-04T07:05:08;100169.75;;;1.82;100.00
35023;BME280;21214;44.912;8.204;2023-02-04T07:07:33;100155.66;;;1.86;100.00
35023;BME280;21214;44.912;8.204;2023-02-04T07:09:58;100169.81;;;1.81;100.00
35023;BME280;21214;44.912;8.204;2023-02-04T07:12:24;100152.44;;;1.81;100.00
35023;BME280;21214;44.912;8.204;2023-02-04T07:14:50;100146.66;;;1.93;100.00
35023;BME280;21214;44.912;8.204;2023-02-04T07:17:15;100173.06;;;2.03;100.00
35023;BME280;21214;44.912;8.204;2023-02-04T07:19:40;100173.91;;;2.03;100.00
35023;BME280;21214;44.912;8.204;2023-02-04T07:22:06;100161.81;;;2.02;100.00
35023;BME280;21214;44.912;8.204;2023-02-04T07:24:31;100178.66;;;2.13;100.00
35023;BME280;21214;44.912;8.204;2023-02-04T07:26:57;100180.91;;;2.20;100.00
35023;BME280;21214;44.912;8.204;2023-02-04T07:29:23;100170.13;;;2.28;100.00
35023;BME280;21214;44.912;8.204;2023-02-04T07:31:49;100174.56;;;2.43;100.00
35023;BME280;21214;44.912;8.204;2023-02-04T07:34:17;100177.47;;;2.54;100.00
35023;BME280;21214;44.912;8.204;2023-02-04T07:36:43;100181.91;;;2.52;100.00
35023;BME280;21214;44.912;8.204;2023-02-04T07:39:09;100173.31;;;2.50;100.00
35023;BME280;21214;44.912;8.204;2023-02-04T07:41:35;100187.44;;;2.46;100.00
35023;BME280;21214;44.912;8.204;2023-02-04T07:44:00;100180.38;;;2.48;100.00
35023;BME280;21214;44.912;8.204;2023-02-04T07:46:26;100163.03;;;2.13;100.00
35023;BME280;21214;44.912;8.204;2023-02-04T07:48:51;100163.03;;;2.13;100.00
35023;BME280;21214;44.912;8.204;2023-02-04T07:51:17;100193.00;;;2.21;100.00
35023;BME280;21214;44.912;8.204;2023-02-04T07:53:43;100148.97;;;2.17;100.00
35023;BME280;21214;44.912;8.204;2023-02-04T07:56:09;100145.59;;;2.15;100.00
35023;BME280;21214;44.912;8.204;2023-02-04T07:58:34;100179.63;;;2.29;100.00
35023;BME280;21214;44.912;8.204;2023-02-04T08:01:00;100171.63;;;2.32;100.00
35023;BME280;21214;44.912;8.204;2023-02-04T08:03:25;100169.56;;;2.38;100.00
35023;BME280;21214;44.912;8.204;2023-02-04T08:05:51;100199.06;;;2.56;100.00
35023;BME280;21214;44.912;8.204;2023-02-04T08:08:17;100216.41;;;2.57;100.00
35023;BME280;21214;44.912;8.204;2023-02-04T08:10:43;100194.47;;;2.78;100.00
35023;BME280;21214;44.912;8.204;2023-02-04T08:13:09;100194.53;;;2.94;100.00
35023;BME280;21214;44.912;8.204;2023-02-04T08:15:34;100202.44;;;2.93;100.00
35023;BME280;21214;44.912;8.204;2023-02-04T08:17:59;100161.13;;;3.01;100.00
35023;BME280;21214;44.912;8.204;2023-02-04T08:20:25;100142.41;;;3.10;100.00
35023;BME280;21214;44.912;8.204;2023-02-04T08:22:50;100145.16;;;3.24;100.00
35023;BME280;21214;44.912;8.204;2023-02-04T08:25:16;100142.69;;;3.37;100.00
35023;BME280;21214;44.912;8.204;2023-02-04T08:27:42;100144.47;;;3.36;100.00
35023;BME280;21214;44.912;8.204;2023-02-04T08:30:08;100162.81;;;3.50;100.00
35023;BME280;21214;44.912;8.204;2023-02-04T08:32:34;100152.78;;;3.43;100.00
35023;BME280;21214;44.912;8.204;2023-02-04T08:34:59;100159.44;;;3.48;100.00
35023;BME280;21214;44.912;8.204;2023-02-04T08:37:25;100153.41;;;3.63;100.00
35023;BME280;21214;44.912;8.204;2023-02-04T08:39:50;100161.06;;;3.66;100.00
35023;BME280;21214;44.912;8.204;2023-02-04T08:42:15;100172.06;;;3.71;100.00
35023;BME280;21214;44.912;8.204;2023-02-04T08:44:41;100166.53;;;3.78;100.00
35023;BME280;21214;44.912;8.204;2023-02-04T08:47:07;100164.53;;;3.83;100.00
35023;BME280;21214;44.912;8.204;2023-02-04T08:49:34;100171.81;;;3.92;100.00
35023;BME280;21214;44.912;8.204;2023-02-04T08:51:59;100143.19;;;4.06;100.00
35023;BME280;21214;44.912;8.204;2023-02-04T08:54:27;100170.81;;;4.24;100.00
35023;BME280;21214;44.912;8.204;2023-02-04T08:56:53;100166.03;;;4.32;100.00
35023;BME280;21214;44.912;8.204;2023-02-04T08:59:18;100131.19;;;4.47;100.00
35023;BME280;21214;44.912;8.204;2023-02-04T09:01:45;100146.69;;;4.65;100.00
35023;BME280;21214;44.912;8.204;2023-02-04T09:04:13;100197.78;;;4.84;100.00
35023;BME280;21214;44.912;8.204;2023-02-04T09:06:40;100169.53;;;5.05;100.00
35023;BME280;21214;44.912;8.204;2023-02-04T09:09:07;100171.75;;;5.25;100.00
35023;BME280;21214;44.912;8.204;2023-02-04T09:11:33;100200.34;;;5.43;100.00
35023;BME280;21214;44.912;8.204;2023-02-04T09:13:59;100185.16;;;5.62;100.00
35023;BME280;21214;44.912;8.204;2023-02-04T09:16:24;100189.09;;;5.69;100.00
35023;BME280;21214;44.912;8.204;2023-02-04T09:18:50;100175.22;;;5.81;100.00
35023;BME280;21214;44.912;8.204;2023-02-04T09:21:15;100175.19;;;5.95;100.00
35023;BME280;21214;44.912;8.204;2023-02-04T09:23:41;100187.50;;;6.07;100.00
35023;BME280;21214;44.912;8.204;2023-02-04T09:26:07;100177.94;;;6.21;100.00
35023;BME280;21214;44.912;8.204;2023-02-04T09:28:33;100170.19;;;6.32;100.00
35023;BME280;21214;44.912;8.204;2023-02-04T09:30:58;100179.25;;;6.40;100.00
35023;BME280;21214;44.912;8.204;2023-02-04T09:33:24;100173.38;;;6.49;100.00
35023;BME280;21214;44.912;8.204;2023-02-04T09:35:50;100177.19;;;6.58;100.00
35023;BME280;21214;44.912;8.204;2023-02-04T09:38:15;100176.38;;;6.70;100.00
35023;BME280;21214;44.912;8.204;2023-02-04T09:40:42;100176.91;;;6.75;100.00
35023;BME280;21214;44.912;8.204;2023-02-04T09:43:09;100180.78;;;6.82;100.00
35023;BME280;21214;44.912;8.204;2023-02-04T09:45:37;100173.22;;;6.90;100.00
35023;BME280;21214;44.912;8.204;2023-02-04T09:48:03;100179.72;;;6.97;100.00
35023;BME280;21214;44.912;8.204;2023-02-04T09:50:29;100177.63;;;7.03;100.00
35023;BME280;21214;44.912;8.204;2023-02-04T09:53:03;100181.63;;;7.08;100.00
35023;BME280;21214;44.912;8.204;2023-02-04T09:55:32;100180.16;;;7.17;100.00
35023;BME280;21214;44.912;8.204;2023-02-04T09:57:58;100185.69;;;7.25;100.00
35023;BME280;21214;44.912;8.204;2023-02-04T10:00:27;100184.34;;;7.32;100.00
35023;BME280;21214;44.912;8.204;2023-02-04T10:02:53;100195.16;;;7.40;100.00
35023;BME280;21214;44.912;8.204;2023-02-04T10:05:30;100196.19;;;7.50;100.00
35023;BME280;21214;44.912;8.204;2023-02-04T10:07:56;100196.38;;;7.60;100.00
35023;BME280;21214;44.912;8.204;2023-02-04T10:10:23;100204.44;;;7.69;100.00
35023;BME280;21214;44.912;8.204;2023-02-04T10:12:52;100204.75;;;7.77;100.00
35023;BME280;21214;44.912;8.204;2023-02-04T10:15:19;100210.28;;;7.86;100.00
35023;BME280;21214;44.912;8.204;2023-02-04T10:17:49;100201.75;;;7.95;100.00
35023;BME280;21214;44.912;8.204;2023-02-04T10:20:22;100202.66;;;8.06;100.00
35023;BME280;21214;44.912;8.204;2023-02-04T10:22:48;100198.50;;;8.15;100.00
35023;BME280;21214;44.912;8.204;2023-02-04T10:25:14;100197.13;;;8.22;100.00
35023;BME280;21214;44.912;8.204;2023-02-04T10:30:25;100191.03;;;8.45;100.00
35023;BME280;21214;44.912;8.204;2023-02-04T10:32:51;100192.75;;;8.57;100.00
35023;BME280;21214;44.912;8.204;2023-02-04T10:35:17;100192.06;;;8.67;100.00
35023;BME280;21214;44.912;8.204;2023-02-04T10:37:43;100187.78;;;8.77;100.00
35023;BME280;21214;44.912;8.204;2023-02-04T10:40:30;100193.78;;;8.90;100.00
35023;BME280;21214;44.912;8.204;2023-02-04T10:42:56;100182.84;;;9.07;100.00
35023;BME280;21214;44.912;8.204;2023-02-04T10:45:26;100183.91;;;9.16;100.00
35023;BME280;21214;44.912;8.204;2023-02-04T10:47:53;100169.41;;;9.21;100.00
35023;BME280;21214;44.912;8.204;2023-02-04T10:50:20;100172.41;;;9.28;100.00
35023;BME280;21214;44.912;8.204;2023-02-04T10:52:47;100178.88;;;9.35;100.00
35023;BME280;21214;44.912;8.204;2023-02-04T10:55:14;100174.81;;;9.42;100.00
35023;BME280;21214;44.912;8.204;2023-02-04T10:57:41;100177.31;;;9.43;100.00
35023;BME280;21214;44.912;8.204;2023-02-04T11:00:17;100172.53;;;9.49;100.00
35023;BME280;21214;44.912;8.204;2023-02-04T11:05:13;100174.53;;;9.67;100.00
35023;BME280;21214;44.912;8.204;2023-02-04T11:07:38;100169.97;;;9.80;100.00
35023;BME280;21214;44.912;8.204;2023-02-04T11:10:04;100164.59;;;9.82;100.00
35023;BME280;21214;44.912;8.204;2023-02-04T11:12:43;100161.69;;;9.85;100.00
35023;BME280;21214;44.912;8.204;2023-02-04T11:18:03;100176.75;;;10.16;100.00
35023;BME280;21214;44.912;8.204;2023-02-04T11:20:31;100180.75;;;10.32;100.00
35023;BME280;21214;44.912;8.204;2023-02-04T11:22:56;100175.91;;;10.48;100.00
35023;BME280;21214;44.912;8.204;2023-02-04T11:25:37;100169.84;;;10.57;100.00
35023;BME280;21214;44.912;8.204;2023-02-04T11:28:15;100179.91;;;10.63;100.00
35023;BME280;21214;44.912;8.204;2023-02-04T11:30:56;100173.28;;;10.68;100.00
35023;BME280;21214;44.912;8.204;2023-02-04T11:33:23;100163.03;;;10.75;100.00
35023;BME280;21214;44.912;8.204;2023-02-04T11:36:04;100149.19;;;10.83;100.00
35023;BME280;21214;44.912;8.204;2023-02-04T11:38:31;100159.09;;;10.90;100.00
35023;BME280;21214;44.912;8.204;2023-02-04T11:40:57;100162.66;;;11.00;100.00
35023;BME280;21214;44.912;8.204;2023-02-04T11:43:22;100157.41;;;11.10;100.00
35023;BME280;21214;44.912;8.204;2023-02-04T11:45:48;100160.78;;;11.22;99.24
35023;BME280;21214;44.912;8.204;2023-02-04T11:48:26;100156.44;;;11.41;95.53
35023;BME280;21214;44.912;8.204;2023-02-04T11:50:58;100161.75;;;11.51;95.88
35023;BME280;21214;44.912;8.204;2023-02-04T11:53:28;100165.97;;;11.63;95.24
35023;BME280;21214;44.912;8.204;2023-02-04T11:55:55;100161.44;;;11.75;95.92
35023;BME280;21214;44.912;8.204;2023-02-04T11:58:23;100150.31;;;11.90;95.39
35023;BME280;21214;44.912;8.204;2023-02-04T12:00:51;100154.38;;;12.04;95.96
35023;BME280;21214;44.912;8.204;2023-02-04T12:03:24;100162.78;;;12.19;95.26
35023;BME280;21214;44.912;8.204;2023-02-04T12:05:50;100151.75;;;12.33;93.27
35023;BME280;21214;44.912;8.204;2023-02-04T12:08:39;100148.84;;;12.46;91.64
35023;BME280;21214;44.912;8.204;2023-02-04T12:11:22;100151.59;;;12.63;87.38
35023;BME280;21214;44.912;8.204;2023-02-04T12:13:54;100146.84;;;12.77;86.26
35023;BME280;21214;44.912;8.204;2023-02-04T12:16:21;100135.13;;;12.89;86.79
35023;BME280;21214;44.912;8.204;2023-02-04T12:18:47;100135.63;;;13.02;85.91
35023;BME280;21214;44.912;8.204;2023-02-04T12:21:12;100136.16;;;13.15;84.96
35023;BME280;21214;44.912;8.204;2023-02-04T12:23:43;100125.78;;;13.31;82.96
35023;BME280;21214;44.912;8.204;2023-02-04T12:26:09;100122.66;;;13.45;81.92
35023;BME280;21214;44.912;8.204;2023-02-04T12:28:35;100113.38;;;13.59;79.49
35023;BME280;21214;44.912;8.204;2023-02-04T12:31:00;100123.63;;;13.72;78.06
35023;BME280;21214;44.912;8.204;2023-02-04T12:33:26;100109.84;;;13.86;75.74
35023;BME280;21214;44.912;8.204;2023-02-04T12:35:51;100113.66;;;14.01;74.80
35023;BME280;21214;44.912;8.204;2023-02-04T12:38:17;100110.16;;;14.18;72.66
35023;BME280;21214;44.912;8.204;2023-02-04T12:40:43;100111.97;;;14.35;71.46
35023;BME280;21214;44.912;8.204;2023-02-04T12:43:08;100110.78;;;14.48;72.22
35023;BME280;21214;44.912;8.204;2023-02-04T12:45:34;100117.34;;;14.61;71.22
35023;BME280;21214;44.912;8.204;2023-02-04T12:47:59;100110.69;;;14.83;65.18
35023;BME280;21214;44.912;8.204;2023-02-04T12:50:25;100104.97;;;14.96;64.35
35023;BME280;21214;44.912;8.204;2023-02-04T12:52:54;100109.19;;;15.06;65.16
35023;BME280;21214;44.912;8.204;2023-02-04T12:55:20;100116.53;;;15.21;62.71
35023;BME280;21214;44.912;8.204;2023-02-04T12:57:46;100097.00;;;15.30;62.51
35023;BME280;21214;44.912;8.204;2023-02-04T13:00:12;100097.69;;;15.40;63.38